createdAt,value
2019-03-21T00:00:34.947Z,0.00
2019-03-21T00:01:34.921Z,0.00
2019-03-21T00:02:34.814Z,0.00
2019-03-21T00:03:34.740Z,0.00
2019-03-21T00:04:34.672Z,0.00
2019-03-21T00:05:34.604Z,0.00
2019-03-21T00:06:34.536Z,0.00
2019-03-21T00:07:34.470Z,0.00
2019-03-21T00:08:34.398Z,0.00
2019-03-21T00:09:34.330Z,0.00
2019-03-21T00:10:34.261Z,0.00
2019-03-21T00:11:34.191Z,0.00
2019-03-21T00:12:34.124Z,0.00
2019-03-21T00:13:34.053Z,0.00
2019-03-21T00:14:34.011Z,0.00
2019-03-21T00:15:33.916Z,0.00
2019-03-21T00:16:33.849Z,0.00
2019-03-21T00:17:33.781Z,0.00
2019-03-21T00:18:33.710Z,0.00
2019-03-21T00:19:33.642Z,0.00
2019-03-21T00:20:33.576Z,0.00
2019-03-21T00:21:33.507Z,0.00
2019-03-21T00:22:33.436Z,0.00
2019-03-21T00:23:33.366Z,0.00
2019-03-21T00:24:33.299Z,0.00
2019-03-21T00:25:33.229Z,0.00
2019-03-21T00:26:33.161Z,0.00
2019-03-21T00:27:33.095Z,0.00
2019-03-21T00:28:33.023Z,0.00
2019-03-21T00:29:32.956Z,0.00
2019-03-21T00:30:32.886Z,0.00
2019-03-21T00:31:32.816Z,0.00
2019-03-21T00:32:32.750Z,0.00
2019-03-21T00:33:32.682Z,0.00
2019-03-21T00:34:32.611Z,0.00
2019-03-21T00:35:32.541Z,0.00
2019-03-21T00:36:32.474Z,0.00
2019-03-21T00:37:32.407Z,0.00
2019-03-21T00:38:32.337Z,0.00
2019-03-21T00:39:33.150Z,0.00
2019-03-21T00:40:32.198Z,0.00
2019-03-21T00:41:32.129Z,0.00
2019-03-21T00:42:32.058Z,0.00
2019-03-21T00:43:31.992Z,0.00
2019-03-21T00:44:31.923Z,0.00
2019-03-21T00:45:31.854Z,0.00
2019-03-21T00:46:31.786Z,0.00
2019-03-21T00:47:31.719Z,0.00
2019-03-21T00:48:31.647Z,0.00
2019-03-21T00:49:31.579Z,0.00
2019-03-21T00:50:31.510Z,0.00
2019-03-21T00:51:31.439Z,0.00
2019-03-21T00:52:31.371Z,0.00
2019-03-21T00:53:31.303Z,0.00
2019-03-21T00:54:31.236Z,0.00
2019-03-21T00:55:31.165Z,0.00
2019-03-21T00:56:31.100Z,0.00
2019-03-21T00:57:31.028Z,0.00
2019-03-21T00:58:30.959Z,0.00
2019-03-21T00:59:30.888Z,0.00
2019-03-21T01:00:30.821Z,0.00
2019-03-21T01:01:30.754Z,0.00
2019-03-21T01:02:30.682Z,0.00
2019-03-21T01:03:30.616Z,0.00
2019-03-21T01:04:30.544Z,0.00
2019-03-21T01:05:30.477Z,0.00
2019-03-21T01:06:30.408Z,0.00
2019-03-21T01:07:30.339Z,0.00
2019-03-21T01:08:30.269Z,0.00
2019-03-21T01:09:30.204Z,0.00
2019-03-21T01:10:30.133Z,0.00
2019-03-21T01:11:30.062Z,0.00
2019-03-21T01:12:29.994Z,0.00
2019-03-21T01:13:29.924Z,0.00
2019-03-21T01:14:30.268Z,0.00
2019-03-21T01:15:29.814Z,0.00
2019-03-21T01:16:29.717Z,0.00
2019-03-21T01:17:29.656Z,0.00
2019-03-21T01:18:29.577Z,0.00
2019-03-21T01:19:29.509Z,0.00
2019-03-21T01:20:29.446Z,0.00
2019-03-21T01:21:29.379Z,0.00
2019-03-21T01:22:29.303Z,0.00
2019-03-21T01:23:29.233Z,0.00
2019-03-21T01:24:29.165Z,0.00
2019-03-21T01:25:29.099Z,0.00
2019-03-21T01:26:29.037Z,0.00
2019-03-21T01:27:28.957Z,0.00
2019-03-21T01:28:28.890Z,0.00
2019-03-21T01:29:28.822Z,0.00
2019-03-21T01:30:28.750Z,0.00
2019-03-21T01:31:28.681Z,0.00
2019-03-21T01:32:28.631Z,0.00
2019-03-21T01:33:28.544Z,0.00
2019-03-21T01:34:28.475Z,0.00
2019-03-21T01:35:28.406Z,0.00
2019-03-21T01:36:28.336Z,0.00
2019-03-21T01:37:28.268Z,0.00
2019-03-21T01:38:28.197Z,0.00
2019-03-21T01:39:28.132Z,0.00
2019-03-21T01:40:28.059Z,0.00
2019-03-21T01:41:27.991Z,0.00
2019-03-21T01:42:27.922Z,0.00
2019-03-21T01:43:27.853Z,0.00
2019-03-21T01:44:27.788Z,0.00
2019-03-21T01:45:27.714Z,0.00
2019-03-21T01:46:27.644Z,0.00
2019-03-21T01:47:27.575Z,0.00
2019-03-21T01:48:27.507Z,0.00
2019-03-21T01:49:27.443Z,0.00
2019-03-21T01:50:27.368Z,0.00
2019-03-21T01:51:27.300Z,0.00
2019-03-21T01:52:27.231Z,0.00
2019-03-21T01:53:27.163Z,0.00
2019-03-21T01:54:27.093Z,0.00
2019-03-21T01:55:27.020Z,0.00
2019-03-21T01:56:26.954Z,0.00
2019-03-21T01:57:26.887Z,0.00
2019-03-21T01:58:26.818Z,0.00
2019-03-21T01:59:26.747Z,0.00
2019-03-21T02:00:26.677Z,0.00
2019-03-21T02:01:26.609Z,0.00
2019-03-21T02:02:26.539Z,0.00
2019-03-21T02:03:26.471Z,0.00
2019-03-21T02:04:26.402Z,0.00
2019-03-21T02:05:26.332Z,0.00
2019-03-21T02:06:26.265Z,0.00
2019-03-21T02:07:26.193Z,0.00
2019-03-21T02:08:26.124Z,0.00
2019-03-21T02:09:26.060Z,0.00
2019-03-21T02:10:26.008Z,0.00
2019-03-21T02:11:25.919Z,0.00
2019-03-21T02:12:25.848Z,0.00
2019-03-21T02:13:25.777Z,0.00
2019-03-21T02:14:25.707Z,0.00
2019-03-21T02:15:25.640Z,0.00
2019-03-21T02:16:25.572Z,0.00
2019-03-21T02:17:25.505Z,0.00
2019-03-21T02:18:25.430Z,0.00
2019-03-21T02:19:25.364Z,0.00
2019-03-21T02:20:25.294Z,0.00
2019-03-21T02:21:25.225Z,0.00
2019-03-21T02:22:25.153Z,0.00
2019-03-21T02:23:25.085Z,0.00
2019-03-21T02:24:25.017Z,0.00
2019-03-21T02:25:24.948Z,0.00
2019-03-21T02:26:24.877Z,0.00
2019-03-21T02:27:24.809Z,0.00
2019-03-21T02:28:24.740Z,0.00
2019-03-21T02:29:24.670Z,0.00
2019-03-21T02:30:24.607Z,0.00
2019-03-21T02:31:24.532Z,0.00
2019-03-21T02:32:24.463Z,0.00
2019-03-21T02:33:24.390Z,0.00
2019-03-21T02:34:24.322Z,0.00
2019-03-21T02:35:24.270Z,0.00
2019-03-21T02:36:24.199Z,0.00
2019-03-21T02:37:24.116Z,0.00
2019-03-21T02:38:24.045Z,0.00
2019-03-21T02:39:23.976Z,0.00
2019-03-21T02:40:23.908Z,0.00
2019-03-21T02:41:25.536Z,0.00
2019-03-21T02:42:23.771Z,0.00
2019-03-21T02:43:23.700Z,0.00
2019-03-21T02:44:23.628Z,0.00
2019-03-21T02:45:23.563Z,0.00
2019-03-21T02:46:23.491Z,0.00
2019-03-21T02:47:23.421Z,0.00
2019-03-21T02:48:23.353Z,0.00
2019-03-21T02:49:23.283Z,0.00
2019-03-21T02:50:23.215Z,0.00
2019-03-21T02:51:23.144Z,0.00
2019-03-21T02:52:23.075Z,0.00
2019-03-21T02:53:23.008Z,0.00
2019-03-21T02:54:22.937Z,0.00
2019-03-21T02:55:22.867Z,0.00
2019-03-21T02:56:22.798Z,0.00
2019-03-21T02:57:22.730Z,0.00
2019-03-21T02:58:22.707Z,0.00
2019-03-21T02:59:22.591Z,0.00
2019-03-21T03:00:22.525Z,0.00
2019-03-21T03:01:22.465Z,0.00
2019-03-21T03:02:22.383Z,0.00
2019-03-21T03:03:22.311Z,0.00
2019-03-21T03:04:22.246Z,0.00
2019-03-21T03:05:22.174Z,0.00
2019-03-21T03:06:22.106Z,0.00
2019-03-21T03:07:22.035Z,0.00
2019-03-21T03:08:21.969Z,0.00
2019-03-21T03:09:21.896Z,0.00
2019-03-21T03:10:21.830Z,0.00
2019-03-21T03:11:21.771Z,0.00
2019-03-21T03:12:21.691Z,0.00
2019-03-21T03:13:21.622Z,0.00
2019-03-21T03:14:21.550Z,0.00
2019-03-21T03:15:23.444Z,0.00
2019-03-21T03:16:21.417Z,0.00
2019-03-21T03:17:21.343Z,0.00
2019-03-21T03:18:21.282Z,0.00
2019-03-21T03:19:21.234Z,0.00
2019-03-21T03:20:21.131Z,0.00
2019-03-21T03:21:21.065Z,0.00
2019-03-21T03:22:20.997Z,0.00
2019-03-21T03:23:20.921Z,0.00
2019-03-21T03:24:20.858Z,0.00
2019-03-21T03:25:20.787Z,0.00
2019-03-21T03:26:20.721Z,0.00
2019-03-21T03:27:20.649Z,0.00
2019-03-21T03:28:20.583Z,0.00
2019-03-21T03:29:20.513Z,0.00
2019-03-21T03:30:20.440Z,0.00
2019-03-21T03:31:20.373Z,0.00
2019-03-21T03:32:20.305Z,0.00
2019-03-21T03:33:20.232Z,0.00
2019-03-21T03:34:20.162Z,0.00
2019-03-21T03:35:20.092Z,0.00
2019-03-21T03:36:20.024Z,0.00
2019-03-21T03:37:19.958Z,0.00
2019-03-21T03:38:19.887Z,0.00
2019-03-21T03:39:19.813Z,0.00
2019-03-21T03:40:19.746Z,0.00
2019-03-21T03:41:19.677Z,0.00
2019-03-21T03:42:19.605Z,0.00
2019-03-21T03:43:19.539Z,0.00
2019-03-21T03:44:19.470Z,0.00
2019-03-21T03:45:19.407Z,0.00
2019-03-21T03:46:19.328Z,0.00
2019-03-21T03:47:19.259Z,0.00
2019-03-21T03:48:20.041Z,0.00
2019-03-21T03:49:19.121Z,0.00
2019-03-21T03:50:19.052Z,0.00
2019-03-21T03:51:18.979Z,0.00
2019-03-21T03:52:18.912Z,0.00
2019-03-21T03:53:18.842Z,0.00
2019-03-21T03:54:18.779Z,0.00
2019-03-21T03:55:18.717Z,0.00
2019-03-21T03:56:18.643Z,0.00
2019-03-21T03:57:18.565Z,0.00
2019-03-21T03:58:18.555Z,0.00
2019-03-21T03:59:18.429Z,0.00
2019-03-21T04:00:18.365Z,0.00
2019-03-21T04:01:18.287Z,0.00
2019-03-21T04:02:18.216Z,0.00
2019-03-21T04:03:18.147Z,0.00
2019-03-21T04:04:18.079Z,0.00
2019-03-21T04:05:18.011Z,0.00
2019-03-21T04:06:17.937Z,0.00
2019-03-21T04:07:17.869Z,0.00
2019-03-21T04:08:17.801Z,0.00
2019-03-21T04:09:17.732Z,0.00
2019-03-21T04:10:17.661Z,0.00
2019-03-21T04:11:17.592Z,0.00
2019-03-21T04:12:17.523Z,0.00
2019-03-21T04:13:17.460Z,0.00
2019-03-21T04:14:17.382Z,0.00
2019-03-21T04:15:17.314Z,0.00
2019-03-21T04:16:17.243Z,0.00
2019-03-21T04:17:17.174Z,0.00
2019-03-21T04:18:17.106Z,0.00
2019-03-21T04:19:17.036Z,0.00
2019-03-21T04:20:16.967Z,0.00
2019-03-21T04:21:16.894Z,0.00
2019-03-21T04:22:16.827Z,0.00
2019-03-21T04:23:16.755Z,0.00
2019-03-21T04:24:16.713Z,0.00
2019-03-21T04:25:16.630Z,0.00
2019-03-21T04:26:16.549Z,0.00
2019-03-21T04:27:16.478Z,0.00
2019-03-21T04:28:16.411Z,0.00
2019-03-21T04:29:16.338Z,0.00
2019-03-21T04:30:16.274Z,0.00
2019-03-21T04:31:16.200Z,0.00
2019-03-21T04:32:16.134Z,0.00
2019-03-21T04:33:16.070Z,0.00
2019-03-21T04:34:15.993Z,0.00
2019-03-21T04:35:15.922Z,0.00
2019-03-21T04:36:15.853Z,0.00
2019-03-21T04:37:15.784Z,0.00
2019-03-21T04:38:15.729Z,0.00
2019-03-21T04:39:15.644Z,0.00
2019-03-21T04:40:15.574Z,0.00
2019-03-21T04:41:15.506Z,0.00
2019-03-21T04:42:15.434Z,0.00
2019-03-21T04:43:15.367Z,0.00
2019-03-21T04:44:15.299Z,0.00
2019-03-21T04:45:15.230Z,0.00
2019-03-21T04:46:15.155Z,0.00
2019-03-21T04:47:15.087Z,0.00
2019-03-21T04:48:15.017Z,0.00
2019-03-21T04:49:14.950Z,0.00
2019-03-21T04:50:14.881Z,0.00
2019-03-21T04:51:14.807Z,0.00
2019-03-21T04:52:14.737Z,0.00
2019-03-21T04:53:14.670Z,0.00
2019-03-21T04:54:14.602Z,0.00
2019-03-21T04:55:14.531Z,0.00
2019-03-21T04:56:14.478Z,0.00
2019-03-21T04:57:14.402Z,4.00
2019-03-21T04:58:14.321Z,4.00
2019-03-21T04:59:14.252Z,0.00
2019-03-21T05:00:14.180Z,4.00
2019-03-21T05:01:14.112Z,4.00
2019-03-21T05:02:14.041Z,8.00
2019-03-21T05:03:13.974Z,8.00
2019-03-21T05:04:13.903Z,8.00
2019-03-21T05:05:13.830Z,8.00
2019-03-21T05:06:13.787Z,12.00
2019-03-21T05:07:13.696Z,12.00
2019-03-21T05:08:13.623Z,16.00
2019-03-21T05:09:13.553Z,20.00
2019-03-21T05:10:13.483Z,24.00
2019-03-21T05:11:13.414Z,28.00
2019-03-21T05:12:13.344Z,28.00
2019-03-21T05:13:13.274Z,36.00
2019-03-21T05:14:13.205Z,40.00
2019-03-21T05:15:13.144Z,44.00
2019-03-21T05:16:14.897Z,48.00
2019-03-21T05:17:12.994Z,56.00
2019-03-21T05:18:12.924Z,60.00
2019-03-21T05:19:12.855Z,64.00
2019-03-21T05:20:14.385Z,76.00
2019-03-21T05:21:12.716Z,80.00
2019-03-21T05:22:12.645Z,88.00
2019-03-21T05:23:12.576Z,96.00
2019-03-21T05:24:12.509Z,104.00
2019-03-21T05:25:12.439Z,116.00
2019-03-21T05:26:12.369Z,120.00
2019-03-21T05:27:12.297Z,132.00
2019-03-21T05:28:12.229Z,140.00
2019-03-21T05:29:12.158Z,148.00
2019-03-21T05:30:12.089Z,156.00
2019-03-21T05:31:12.018Z,164.00
2019-03-21T05:32:11.951Z,172.00
2019-03-21T05:33:11.881Z,184.00
2019-03-21T05:34:11.810Z,192.00
2019-03-21T05:35:11.740Z,204.00
2019-03-21T05:36:11.671Z,212.00
2019-03-21T05:37:11.602Z,224.00
2019-03-21T05:38:11.531Z,232.00
2019-03-21T05:39:11.459Z,240.00
2019-03-21T05:40:11.392Z,248.00
2019-03-21T05:41:11.322Z,256.00
2019-03-21T05:42:11.251Z,268.00
2019-03-21T05:43:11.185Z,280.00
2019-03-21T05:44:11.114Z,292.00
2019-03-21T05:45:11.045Z,304.00
2019-03-21T05:46:10.974Z,316.00
2019-03-21T05:47:10.904Z,328.00
2019-03-21T05:48:10.833Z,336.00
2019-03-21T05:49:10.766Z,348.00
2019-03-21T05:50:10.693Z,360.00
2019-03-21T05:51:10.630Z,368.00
2019-03-21T05:52:10.556Z,380.00
2019-03-21T05:53:10.486Z,388.00
2019-03-21T05:54:10.413Z,396.00
2019-03-21T05:55:10.346Z,408.00
2019-03-21T05:56:10.276Z,416.00
2019-03-21T05:57:10.207Z,428.00
2019-03-21T05:58:10.137Z,436.00
2019-03-21T05:59:10.069Z,448.00
2019-03-21T06:00:10.000Z,456.00
2019-03-21T06:01:09.930Z,468.00
2019-03-21T06:02:09.859Z,476.00
2019-03-21T06:03:09.789Z,488.00
2019-03-21T06:04:09.731Z,496.00
2019-03-21T06:05:09.652Z,504.00
2019-03-21T06:06:09.580Z,516.00
2019-03-21T06:07:09.516Z,524.00
2019-03-21T06:08:09.441Z,532.00
2019-03-21T06:09:09.375Z,540.00
2019-03-21T06:10:09.305Z,552.00
2019-03-21T06:11:09.231Z,560.00
2019-03-21T06:12:09.164Z,576.00
2019-03-21T06:13:09.094Z,584.00
2019-03-21T06:14:09.024Z,596.00
2019-03-21T06:15:08.955Z,608.00
2019-03-21T06:16:08.884Z,620.00
2019-03-21T06:17:08.816Z,632.00
2019-03-21T06:18:08.749Z,640.00
2019-03-21T06:19:08.675Z,652.00
2019-03-21T06:20:08.611Z,660.00
2019-03-21T06:21:08.538Z,672.00
2019-03-21T06:22:08.468Z,676.00
2019-03-21T06:23:08.399Z,688.00
2019-03-21T06:24:08.327Z,700.00
2019-03-21T06:25:08.272Z,704.00
2019-03-21T06:26:08.194Z,708.00
2019-03-21T06:27:14.365Z,720.00
2019-03-21T06:28:08.053Z,728.00
2019-03-21T06:29:07.991Z,736.00
2019-03-21T06:30:07.915Z,744.00
2019-03-21T06:31:07.844Z,752.00
2019-03-21T06:32:07.779Z,760.00
2019-03-21T06:33:07.707Z,772.00
2019-03-21T06:34:07.639Z,780.00
2019-03-21T06:35:07.567Z,788.00
2019-03-21T06:36:07.503Z,796.00
2019-03-21T06:37:07.429Z,796.00
2019-03-21T06:38:07.358Z,808.00
2019-03-21T06:39:07.287Z,816.00
2019-03-21T06:40:07.223Z,832.00
2019-03-21T06:41:07.213Z,844.00
2019-03-21T06:42:07.084Z,856.00
2019-03-21T06:43:07.015Z,860.00
2019-03-21T06:44:06.947Z,868.00
2019-03-21T06:45:06.882Z,876.00
2019-03-21T06:46:06.806Z,876.00
2019-03-21T06:47:06.738Z,884.00
2019-03-21T06:48:06.670Z,888.00
2019-03-21T06:49:06.602Z,904.00
2019-03-21T06:50:06.532Z,912.00
2019-03-21T06:51:06.464Z,920.00
2019-03-21T06:52:06.395Z,924.00
2019-03-21T06:53:06.327Z,932.00
2019-03-21T06:54:06.256Z,940.00
2019-03-21T06:55:06.187Z,936.00
2019-03-21T06:56:06.118Z,952.00
2019-03-21T06:57:06.051Z,960.00
2019-03-21T06:58:05.989Z,968.00
2019-03-21T06:59:05.911Z,972.00
2019-03-21T07:00:05.853Z,980.00
2019-03-21T07:01:05.812Z,988.00
2019-03-21T07:02:05.708Z,992.00
2019-03-21T07:03:05.638Z,996.00
2019-03-21T07:04:07.446Z,1008.00
2019-03-21T07:05:05.501Z,1012.00
2019-03-21T07:06:05.433Z,1024.00
2019-03-21T07:07:08.451Z,1024.00
2019-03-21T07:08:05.296Z,1036.00
2019-03-21T07:09:05.226Z,1044.00
2019-03-21T07:10:05.158Z,1044.00
2019-03-21T07:11:05.088Z,1052.00
2019-03-21T07:12:05.019Z,1056.00
2019-03-21T07:13:04.955Z,1068.00
2019-03-21T07:14:04.883Z,1068.00
2019-03-21T07:15:04.822Z,1080.00
2019-03-21T07:16:04.748Z,1084.00
2019-03-21T07:17:04.681Z,1092.00
2019-03-21T07:18:04.613Z,1100.00
2019-03-21T07:19:04.541Z,1100.00
2019-03-21T07:20:04.475Z,1108.00
2019-03-21T07:21:04.407Z,1116.00
2019-03-21T07:22:04.338Z,1120.00
2019-03-21T07:23:04.270Z,1124.00
2019-03-21T07:24:04.201Z,1132.00
2019-03-21T07:25:04.136Z,1136.00
2019-03-21T07:26:06.579Z,1140.00
2019-03-21T07:27:03.995Z,1144.00
2019-03-21T07:28:03.931Z,1152.00
2019-03-21T07:29:03.861Z,1156.00
2019-03-21T07:30:03.793Z,1160.00
2019-03-21T07:31:03.737Z,1168.00
2019-03-21T07:32:03.657Z,1172.00
2019-03-21T07:33:03.585Z,1176.00
2019-03-21T07:34:03.530Z,1184.00
2019-03-21T07:35:03.471Z,1192.00
2019-03-21T07:36:03.390Z,1196.00
2019-03-21T07:37:03.317Z,1204.00
2019-03-21T07:38:03.254Z,1208.00
2019-03-21T07:39:03.182Z,1212.00
2019-03-21T07:40:03.138Z,1216.00
2019-03-21T07:41:03.046Z,1220.00
2019-03-21T07:42:02.975Z,1224.00
2019-03-21T07:43:02.961Z,1228.00
2019-03-21T07:44:02.849Z,1240.00
2019-03-21T07:45:02.783Z,1240.00
2019-03-21T07:46:02.706Z,1248.00
2019-03-21T07:47:12.270Z,1248.00
2019-03-21T07:48:05.104Z,1256.00
2019-03-21T07:49:02.501Z,1264.00
2019-03-21T07:50:02.433Z,1264.00
2019-03-21T07:51:02.369Z,1272.00
2019-03-21T07:52:02.299Z,1272.00
2019-03-21T07:53:02.232Z,1280.00
2019-03-21T07:54:02.163Z,1284.00
2019-03-21T07:55:02.101Z,1288.00
2019-03-21T07:56:02.031Z,1292.00
2019-03-21T07:57:01.962Z,1296.00
2019-03-21T07:58:01.914Z,1308.00
2019-03-21T07:59:01.826Z,1308.00
2019-03-21T08:00:01.764Z,1316.00
2019-03-21T08:01:01.692Z,1320.00
2019-03-21T08:02:01.629Z,1324.00
2019-03-21T08:03:01.558Z,1328.00
2019-03-21T08:04:02.968Z,1336.00
2019-03-21T08:05:01.420Z,1340.00
2019-03-21T08:06:01.352Z,1344.00
2019-03-21T08:07:01.287Z,1348.00
2019-03-21T08:08:01.220Z,1356.00
2019-03-21T08:09:01.152Z,1364.00
2019-03-21T08:10:01.084Z,1364.00
2019-03-21T08:11:01.018Z,1368.00
2019-03-21T08:12:00.949Z,1376.00
2019-03-21T08:13:00.887Z,1380.00
2019-03-21T08:14:00.828Z,1384.00
2019-03-21T08:15:00.750Z,1392.00
2019-03-21T08:16:00.680Z,1392.00
2019-03-21T08:17:00.614Z,1396.00
2019-03-21T08:18:00.550Z,1400.00
2019-03-21T08:19:00.481Z,1404.00
2019-03-21T08:20:00.413Z,1408.00
2019-03-21T08:21:00.354Z,1416.00
2019-03-21T08:22:00.279Z,1420.00
2019-03-21T08:23:00.212Z,1428.00
2019-03-21T08:24:00.146Z,1436.00
2019-03-21T08:25:00.081Z,1444.00
2019-03-21T08:26:00.027Z,1444.00
2019-03-21T08:26:59.964Z,1452.00
2019-03-21T08:27:59.877Z,1452.00
2019-03-21T08:28:59.814Z,1444.00
2019-03-21T08:29:59.746Z,1472.00
2019-03-21T08:30:59.679Z,1456.00
2019-03-21T08:31:59.609Z,1464.00
2019-03-21T08:32:59.538Z,1484.00
2019-03-21T08:33:59.475Z,1492.00
2019-03-21T08:34:59.406Z,1496.00
2019-03-21T08:35:59.392Z,1496.00
2019-03-21T08:36:59.294Z,1496.00
2019-03-21T08:37:59.207Z,1512.00
2019-03-21T08:38:59.148Z,1524.00
2019-03-21T08:39:59.076Z,1524.00
2019-03-21T08:40:59.009Z,1516.00
2019-03-21T08:41:59.011Z,1540.00
2019-03-21T08:42:58.882Z,1548.00
2019-03-21T08:43:58.813Z,1548.00
2019-03-21T08:44:58.752Z,1556.00
2019-03-21T08:45:58.696Z,1560.00
2019-03-21T08:46:58.611Z,1564.00
2019-03-21T08:47:58.547Z,1568.00
2019-03-21T08:48:58.476Z,1568.00
2019-03-21T08:49:58.409Z,1576.00
2019-03-21T08:51:07.658Z,1576.00
2019-03-21T08:51:58.280Z,1584.00
2019-03-21T08:52:58.214Z,1592.00
2019-03-21T08:53:58.145Z,1588.00
2019-03-21T08:54:58.076Z,1596.00
2019-03-21T08:55:58.021Z,1544.00
2019-03-21T08:56:57.947Z,1576.00
2019-03-21T08:57:57.879Z,1580.00
2019-03-21T08:58:57.818Z,1572.00
2019-03-21T08:59:57.747Z,1592.00
2019-03-21T09:00:57.684Z,1608.00
2019-03-21T09:01:57.614Z,1620.00
2019-03-21T09:02:57.549Z,1616.00
2019-03-21T09:03:57.493Z,1620.00
2019-03-21T09:04:59.645Z,1572.00
2019-03-21T09:05:57.351Z,1564.00
2019-03-21T09:06:57.287Z,1588.00
2019-03-21T09:07:57.218Z,1604.00
2019-03-21T09:08:57.155Z,1608.00
2019-03-21T09:09:57.088Z,1612.00
2019-03-21T09:10:57.022Z,1616.00
2019-03-21T09:11:56.957Z,1608.00
2019-03-21T09:12:56.894Z,1620.00
2019-03-21T09:13:56.847Z,1620.00
2019-03-21T09:14:56.758Z,1620.00
2019-03-21T09:15:56.694Z,1620.00
2019-03-21T09:16:56.627Z,1620.00
2019-03-21T09:17:56.565Z,1620.00
2019-03-21T09:18:56.495Z,1628.00
2019-03-21T09:19:56.431Z,1624.00
2019-03-21T09:20:56.364Z,1632.00
2019-03-21T09:21:56.308Z,1636.00
2019-03-21T09:22:56.235Z,1636.00
2019-03-21T09:23:56.162Z,1632.00
2019-03-21T09:24:56.101Z,1628.00
2019-03-21T09:25:56.036Z,1640.00
2019-03-21T09:26:55.969Z,1648.00
2019-03-21T09:28:02.531Z,1612.00
2019-03-21T09:28:55.837Z,1620.00
2019-03-21T09:29:55.770Z,1628.00
2019-03-21T09:30:56.627Z,1664.00
2019-03-21T09:31:55.641Z,1656.00
2019-03-21T09:32:55.576Z,1660.00
2019-03-21T09:33:55.510Z,1656.00
2019-03-21T09:34:55.445Z,1672.00
2019-03-21T09:35:55.377Z,1676.00
2019-03-21T09:36:55.315Z,1684.00
2019-03-21T09:37:55.248Z,1684.00
2019-03-21T09:38:55.184Z,1692.00
2019-03-21T09:39:55.117Z,1704.00
2019-03-21T09:40:55.053Z,1704.00
2019-03-21T09:41:54.985Z,1700.00
2019-03-21T09:42:54.946Z,1704.00
2019-03-21T09:43:54.856Z,1700.00
2019-03-21T09:44:54.791Z,1672.00
2019-03-21T09:45:54.721Z,1672.00
2019-03-21T09:46:54.658Z,1692.00
2019-03-21T09:47:54.593Z,1688.00
2019-03-21T09:48:54.529Z,1700.00
2019-03-21T09:49:54.465Z,1692.00
2019-03-21T09:50:54.398Z,1668.00
2019-03-21T09:51:54.333Z,1676.00
2019-03-21T09:52:54.268Z,1668.00
2019-03-21T09:53:54.204Z,1648.00
2019-03-21T09:54:54.147Z,1660.00
2019-03-21T09:55:54.071Z,1644.00
2019-03-21T09:56:54.008Z,1676.00
2019-03-21T09:57:53.942Z,1672.00
2019-03-21T09:58:53.882Z,1692.00
2019-03-21T09:59:53.813Z,1692.00
2019-03-21T10:00:53.748Z,1692.00
2019-03-21T10:01:54.549Z,1696.00
2019-03-21T10:02:53.620Z,1700.00
2019-03-21T10:03:53.550Z,1704.00
2019-03-21T10:04:53.490Z,1692.00
2019-03-21T10:05:53.422Z,1704.00
2019-03-21T10:06:53.357Z,1700.00
2019-03-21T10:07:53.306Z,1700.00
2019-03-21T10:08:53.234Z,1704.00
2019-03-21T10:09:53.161Z,1640.00
2019-03-21T10:10:53.097Z,1616.00
2019-03-21T10:11:53.035Z,1620.00
2019-03-21T10:12:55.436Z,1716.00
2019-03-21T10:13:52.909Z,1696.00
2019-03-21T10:14:52.847Z,1716.00
2019-03-21T10:15:52.774Z,1732.00
2019-03-21T10:16:52.710Z,1740.00
2019-03-21T10:17:52.645Z,1744.00
2019-03-21T10:18:52.580Z,1768.00
2019-03-21T10:19:52.515Z,1716.00
2019-03-21T10:20:52.450Z,1756.00
2019-03-21T10:21:52.390Z,1784.00
2019-03-21T10:22:52.323Z,1768.00
2019-03-21T10:23:52.257Z,1796.00
2019-03-21T10:24:52.195Z,1828.00
2019-03-21T10:25:52.130Z,1844.00
2019-03-21T10:26:52.062Z,1820.00
2019-03-21T10:27:51.993Z,1852.00
2019-03-21T10:28:51.934Z,1860.00
2019-03-21T10:29:51.869Z,1872.00
2019-03-21T10:30:51.805Z,1896.00
2019-03-21T10:31:51.740Z,1900.00
2019-03-21T10:32:51.677Z,1908.00
2019-03-21T10:33:51.611Z,1908.00
2019-03-21T10:34:51.546Z,1876.00
2019-03-21T10:35:51.482Z,1928.00
2019-03-21T10:36:51.417Z,1936.00
2019-03-21T10:37:51.354Z,1936.00
2019-03-21T10:38:51.288Z,1940.00
2019-03-21T10:39:51.221Z,1944.00
2019-03-21T10:40:51.162Z,1948.00
2019-03-21T10:41:51.096Z,1956.00
2019-03-21T10:42:51.036Z,1960.00
2019-03-21T10:43:50.967Z,1968.00
2019-03-21T10:44:50.904Z,1972.00
2019-03-21T10:45:50.839Z,1988.00
2019-03-21T10:46:50.776Z,1992.00
2019-03-21T10:47:50.710Z,1992.00
2019-03-21T10:48:50.647Z,1996.00
2019-03-21T10:49:50.582Z,2008.00
2019-03-21T10:50:50.560Z,2000.00
2019-03-21T10:51:54.921Z,2004.00
2019-03-21T10:52:50.393Z,2004.00
2019-03-21T10:53:50.331Z,2000.00
2019-03-21T10:54:50.260Z,2004.00
2019-03-21T10:55:50.203Z,1996.00
2019-03-21T10:56:50.135Z,1988.00
2019-03-21T10:57:50.071Z,1988.00
2019-03-21T10:58:50.006Z,1980.00
2019-03-21T10:59:49.940Z,1976.00
2019-03-21T11:00:49.880Z,1976.00
2019-03-21T11:01:49.816Z,1968.00
2019-03-21T11:02:49.752Z,1968.00
2019-03-21T11:03:49.689Z,1968.00
2019-03-21T11:04:49.624Z,1972.00
2019-03-21T11:05:49.566Z,1968.00
2019-03-21T11:06:49.494Z,1972.00
2019-03-21T11:07:49.434Z,1968.00
2019-03-21T11:08:49.369Z,1976.00
2019-03-21T11:09:49.305Z,1976.00
2019-03-21T11:10:49.242Z,1980.00
2019-03-21T11:11:49.172Z,1980.00
2019-03-21T11:12:49.117Z,1976.00
2019-03-21T11:13:49.052Z,1984.00
2019-03-21T11:14:48.984Z,1988.00
2019-03-21T11:15:48.922Z,1988.00
2019-03-21T11:16:48.857Z,1972.00
2019-03-21T11:17:48.794Z,1956.00
2019-03-21T11:18:48.730Z,1916.00
2019-03-21T11:19:48.666Z,1880.00
2019-03-21T11:20:48.605Z,1844.00
2019-03-21T11:21:48.539Z,1860.00
2019-03-21T11:22:48.478Z,1996.00
2019-03-21T11:23:48.411Z,1984.00
2019-03-21T11:24:48.348Z,1976.00
2019-03-21T11:25:48.285Z,1968.00
2019-03-21T11:26:48.249Z,1960.00
2019-03-21T11:27:48.157Z,1956.00
2019-03-21T11:28:48.093Z,1948.00
2019-03-21T11:29:48.029Z,1944.00
2019-03-21T11:30:47.967Z,1920.00
2019-03-21T11:31:47.901Z,1912.00
2019-03-21T11:32:47.839Z,1808.00
2019-03-21T11:33:47.799Z,1760.00
2019-03-21T11:34:47.710Z,1828.00
2019-03-21T11:35:47.649Z,1788.00
2019-03-21T11:36:47.585Z,1764.00
2019-03-21T11:37:47.520Z,1748.00
2019-03-21T11:38:47.457Z,1740.00
2019-03-21T11:39:47.392Z,1728.00
2019-03-21T11:40:48.512Z,1728.00
2019-03-21T11:41:47.276Z,1708.00
2019-03-21T11:42:47.214Z,1696.00
2019-03-21T11:43:47.148Z,1688.00
2019-03-21T11:44:47.073Z,1680.00
2019-03-21T11:45:48.016Z,1664.00
2019-03-21T11:46:46.947Z,1652.00
2019-03-21T11:47:46.881Z,1648.00
2019-03-21T11:48:46.828Z,1652.00
2019-03-21T11:49:46.765Z,1644.00
2019-03-21T11:50:46.701Z,1648.00
2019-03-21T11:51:46.657Z,1624.00
2019-03-21T11:52:46.563Z,1628.00
2019-03-21T11:53:46.501Z,1648.00
2019-03-21T11:54:46.435Z,1660.00
2019-03-21T11:55:46.373Z,1652.00
2019-03-21T11:56:46.320Z,1640.00
2019-03-21T11:57:46.244Z,1616.00
2019-03-21T11:58:46.180Z,1624.00
2019-03-21T11:59:51.498Z,1616.00
2019-03-21T12:00:46.052Z,1596.00
2019-03-21T12:01:45.987Z,1584.00
2019-03-21T12:02:45.927Z,1564.00
2019-03-21T12:03:45.865Z,1568.00
2019-03-21T12:04:45.797Z,1556.00
2019-03-21T12:05:45.731Z,1540.00
2019-03-21T12:06:45.670Z,1520.00
2019-03-21T12:07:45.604Z,1508.00
2019-03-21T12:08:45.541Z,1488.00
2019-03-21T12:09:45.474Z,1484.00
2019-03-21T12:10:45.413Z,1468.00
2019-03-21T12:11:45.348Z,1456.00
2019-03-21T12:12:45.281Z,1444.00
2019-03-21T12:13:45.242Z,1428.00
2019-03-21T12:14:45.159Z,1420.00
2019-03-21T12:15:45.098Z,1424.00
2019-03-21T12:16:45.037Z,1424.00
2019-03-21T12:17:44.967Z,1416.00
2019-03-21T12:18:44.901Z,1408.00
2019-03-21T12:19:44.836Z,1408.00
2019-03-21T12:20:44.775Z,1400.00
2019-03-21T12:21:44.710Z,1400.00
2019-03-21T12:22:47.186Z,1388.00
2019-03-21T12:23:44.582Z,1384.00
2019-03-21T12:24:44.518Z,1380.00
2019-03-21T12:25:44.477Z,1376.00
2019-03-21T12:26:44.413Z,1368.00
2019-03-21T12:27:44.330Z,1344.00
2019-03-21T12:28:44.266Z,1356.00
2019-03-21T12:29:44.199Z,1348.00
2019-03-21T12:30:44.135Z,1344.00
2019-03-21T12:31:44.071Z,1344.00
2019-03-21T12:32:44.010Z,1344.00
2019-03-21T12:33:43.945Z,1344.00
2019-03-21T12:34:43.882Z,1340.00
2019-03-21T12:35:43.817Z,1340.00
2019-03-21T12:36:43.752Z,1340.00